Sealand Illinois — 9HA3372 — position and weather

sailwx.info

Track history (hours):
 
Tides and Currents Weather Stations Pressure Air Temp Water Temp Dewpoint Dewpoint Depression Visibility Wind Speed Wind Dir Waves Ship Positions

Sealand Illinois

Last reported at 2017-Dec-07 15:13 UTC. Time now 2017-Dec-13 11:20 UTC.
Position N 36°49' W 075°47'.

Length 304 m; draft 11.1 m.

Type: Ship (hazmat cat A). MMSI: 229487000.

Date/timePositionNaut miles runAvg speedWind from/ knotsBaromVisibWave heightAir tempDewpointWater temp
2017-Dec-07 15:13N 36°49' W 075°47'2 9.8
2017-Dec-07 15:00N 36°50' W 075°49'5 9.5
2017-Dec-07 14:30N 36°53' W 075°54'5 9.5
2017-Dec-07 14:00N 36°56' W 075°58'510.4
2017-Dec-07 13:30N 36°58' W 076°04'612.9
2017-Dec-07 13:00N 36°60' W 076°12'611.9
2017-Dec-07 12:30N 36°59' W 076°19'5 9.6
2017-Dec-07 12:01N 36°54' W 076°20'3 5.4
2017-Dec-07 11:29N 36°51' W 076°19'0 0.0
2017-Dec-07 10:59N 36°51' W 076°19'0 0.0
2017-Dec-07 10:23N 36°51' W 076°19'0 0.0
2017-Dec-07 09:59N 36°51' W 076°19'0 0.0
2017-Dec-07 09:26N 36°51' W 076°19'0 0.0
2017-Dec-07 08:59N 36°51' W 076°19'0 0.0
2017-Dec-07 08:26N 36°51' W 076°19'0 0.0
2017-Dec-07 07:59N 36°51' W 076°19'0 0.0
2017-Dec-07 07:29N 36°51' W 076°19'0 0.0
2017-Dec-07 06:59N 36°51' W 076°19'0 0.0
2017-Dec-07 06:29N 36°51' W 076°19'0 0.0
2017-Dec-07 05:59N 36°51' W 076°19'0 0.0
2017-Dec-07 05:29N 36°51' W 076°19'0 0.0
2017-Dec-07 04:59N 36°51' W 076°19'0 0.0
2017-Dec-07 04:29N 36°51' W 076°19'0 0.0
2017-Dec-07 03:59N 36°51' W 076°19'0 0.0
2017-Dec-07 03:29N 36°51' W 076°19'0 0.0
2017-Dec-07 02:59N 36°51' W 076°19'0 0.0
2017-Dec-07 02:29N 36°51' W 076°19'0 0.0
2017-Dec-07 01:59N 36°51' W 076°19'0 0.0
2017-Dec-07 01:26N 36°51' W 076°19'0 0.0
2017-Dec-07 00:59N 36°51' W 076°19'0 0.0
2017-Dec-07 00:29N 36°51' W 076°19'0 0.0
2017-Dec-06 23:59N 36°51' W 076°19'0 0.0
2017-Dec-06 23:29N 36°51' W 076°19'0 0.0
2017-Dec-06 22:59N 36°51' W 076°19'0 0.1
2017-Dec-06 22:31N 36°52' W 076°19'2 3.1
2017-Dec-06 22:01N 36°53' W 076°20'5 9.1
2017-Dec-06 21:31N 36°58' W 076°20'711.4
2017-Dec-06 20:54N 36°60' W 076°12'  
2017-Dec-03 05:09N 42°17' W 070°02'613.1
2017-Dec-03 04:43N 42°18' W 070°10'313.2
2017-Dec-03 04:30N 42°18' W 070°14'713.1
2017-Dec-03 04:00N 42°18' W 070°22'612.7
2017-Dec-03 03:30N 42°19' W 070°31'611.8
2017-Dec-03 03:00N 42°20' W 070°39'612.2
2017-Dec-03 02:30N 42°22' W 070°46'510.8
2017-Dec-03 02:00N 42°23' W 070°54'510.6
2017-Dec-03 01:30N 42°20' W 071°00'1 1.6
2017-Dec-03 01:00N 42°21' W 071°01'0 0.0
2017-Dec-03 00:30N 42°21' W 071°01'0 0.0
2017-Dec-03 00:00N 42°21' W 071°01'0 0.0
2017-Dec-02 23:30N 42°21' W 071°01'0 0.0
2017-Dec-02 23:00N 42°21' W 071°01'0 0.0
2017-Dec-02 22:30N 42°21' W 071°01'0 0.0
2017-Dec-02 22:00N 42°21' W 071°01'0 0.0
2017-Dec-02 21:30N 42°21' W 071°01'0 0.0
2017-Dec-02 21:00N 42°21' W 071°01'0 0.0
2017-Dec-02 20:30N 42°21' W 071°01'0 0.0
2017-Dec-02 20:00N 42°21' W 071°01'0 0.0
2017-Dec-02 19:30N 42°21' W 071°01'0 0.0
2017-Dec-02 19:00N 42°21' W 071°01'0 0.0
2017-Dec-02 18:30N 42°21' W 071°01'0 0.0
2017-Dec-02 18:00N 42°21' W 071°01'0 0.0
2017-Dec-02 17:30N 42°21' W 071°01'0 0.0
2017-Dec-02 17:00N 42°21' W 071°01'0 0.0
2017-Dec-02 16:30N 42°21' W 071°01'0 0.0
2017-Dec-02 16:00N 42°21' W 071°01'0 0.0
2017-Dec-02 15:30N 42°21' W 071°01'0 0.0
2017-Dec-02 15:00N 42°21' W 071°01'0 0.0
2017-Dec-02 14:30N 42°21' W 071°01'0 0.0
2017-Dec-02 14:00N 42°21' W 071°01'0 0.0
2017-Dec-02 13:30N 42°21' W 071°01'0 0.0
2017-Dec-02 13:00N 42°21' W 071°01'0 0.0
2017-Dec-02 12:30N 42°21' W 071°01'0 0.0
2017-Dec-02 12:00N 42°21' W 071°01'0 0.0
2017-Dec-02 11:30N 42°21' W 071°01'0 0.0
2017-Dec-02 11:00N 42°21' W 071°01'0 0.0
2017-Dec-02 10:30N 42°21' W 071°01'0 0.0
2017-Dec-02 10:00N 42°21' W 071°01'0 0.0
2017-Dec-02 09:30N 42°21' W 071°01'0 0.0
2017-Dec-02 09:00N 42°21' W 071°01'0 0.0
2017-Dec-02 08:30N 42°21' W 071°01'0 0.0
2017-Dec-02 08:00N 42°21' W 071°01'0 0.0
2017-Dec-02 07:30N 42°21' W 071°01'0 0.0
2017-Dec-02 07:00N 42°21' W 071°01'0 0.0
2017-Dec-02 06:30N 42°21' W 071°01'0 0.0
2017-Dec-02 06:00N 42°21' W 071°01'0 0.0
2017-Dec-02 05:30N 42°21' W 071°01'0 0.0
2017-Dec-02 05:00N 42°21' W 071°01'0 0.0
2017-Dec-02 04:24N 42°21' W 071°01'1 1.7
2017-Dec-02 04:00N 42°20' W 071°00'4 7.9
2017-Dec-02 03:31N 42°22' W 070°55'5 9.3
2017-Dec-02 03:00N 42°24' W 070°50'510.4
2017-Dec-02 02:30N 42°23' W 070°43'611.1
2017-Dec-02 02:00N 42°22' W 070°36'611.5
2017-Dec-02 01:30N 42°21' W 070°28'611.6
2017-Dec-02 01:01N 42°21' W 070°20'5 9.4
2017-Dec-02 00:31N 42°21' W 070°14'0 0.8
2017-Dec-02 00:01N 42°21' W 070°14'713.4
2017-Dec-01 23:31N 42°20' W 070°05'199 9.5
2017-Dec-01 02:28N 40°26' W 073°43'510.4
2017-Dec-01 02:00N 40°27' W 073°49'4 7.7
2017-Dec-01 01:29N 40°29' W 073°54'612.1
2017-Dec-01 01:00N 40°32' W 074°01'715.1
2017-Dec-01 00:30N 40°39' W 074°04'4 7.3
2017-Dec-01 00:00N 40°39' W 074°08'1 2.8
2017-Nov-30 23:30N 40°40' W 074°09'0 0.1
2017-Nov-30 22:59N 40°40' W 074°09'0 0.0
2017-Nov-30 22:29N 40°40' W 074°09'0 0.0
2017-Nov-30 21:59N 40°40' W 074°09'0 0.0
2017-Nov-30 21:29N 40°40' W 074°09'0 0.0
2017-Nov-30 20:59N 40°40' W 074°09'0 0.0
2017-Nov-30 20:29N 40°40' W 074°09'0 0.0
2017-Nov-30 19:59N 40°40' W 074°09'0 0.0
2017-Nov-30 19:29N 40°40' W 074°09'0 0.0
2017-Nov-30 18:59N 40°40' W 074°09'0 0.0
2017-Nov-30 18:29N 40°40' W 074°09'0 0.0
2017-Nov-30 17:59N 40°40' W 074°09'0 0.0
2017-Nov-30 17:29N 40°40' W 074°09'0 0.0
2017-Nov-30 16:59N 40°40' W 074°09'0 0.0
2017-Nov-30 16:29N 40°40' W 074°09'0 0.0
2017-Nov-30 15:59N 40°40' W 074°09'0 0.0
2017-Nov-30 15:29N 40°40' W 074°09'0 0.0
2017-Nov-30 14:59N 40°40' W 074°09'0 0.0
2017-Nov-30 14:29N 40°40' W 074°09'0 0.0
2017-Nov-30 13:56N 40°40' W 074°09'0 0.0
2017-Nov-30 13:29N 40°40' W 074°09'0 0.0
2017-Nov-30 12:56N 40°40' W 074°09'0 0.0
2017-Nov-30 12:29N 40°40' W 074°09'0 0.0
2017-Nov-30 11:59N 40°40' W 074°09'0 0.0
2017-Nov-30 11:29N 40°40' W 074°09'0 0.0
2017-Nov-30 10:59N 40°40' W 074°09'0 0.0
2017-Nov-30 10:29N 40°40' W 074°09'0 0.0
2017-Nov-30 09:56N 40°40' W 074°09'0 0.0
2017-Nov-30 09:29N 40°40' W 074°09'0 0.0
2017-Nov-30 08:59N 40°40' W 074°09'0 0.0
2017-Nov-30 08:29N 40°40' W 074°09'0 0.0
2017-Nov-30 07:56N 40°40' W 074°09'0 0.0
2017-Nov-30 07:29N 40°40' W 074°09'0 0.0
2017-Nov-30 06:59N 40°40' W 074°09'0 0.0
2017-Nov-30 06:26N 40°40' W 074°09'0 0.0
2017-Nov-30 05:44N 40°40' W 074°09'0 0.0
2017-Nov-30 05:29N 40°40' W 074°09'0 0.0
2017-Nov-30 04:59N 40°40' W 074°09'0 0.0
2017-Nov-30 04:29N 40°40' W 074°09'0 0.0
2017-Nov-30 03:59N 40°40' W 074°09'0 0.0
2017-Nov-30 03:26N 40°40' W 074°09'0 0.0
2017-Nov-30 02:59N 40°40' W 074°09'0 0.0
2017-Nov-30 02:29N 40°40' W 074°09'0 0.0
2017-Nov-30 01:53N 40°40' W 074°09'0 0.0
2017-Nov-30 01:29N 40°40' W 074°09'0 0.0
2017-Nov-30 00:59N 40°40' W 074°09'0 0.0
2017-Nov-30 00:29N 40°40' W 074°09'0 0.0
2017-Nov-29 23:59N 40°40' W 074°09'0 0.0
2017-Nov-29 23:29N 40°40' W 074°09'0 0.0
2017-Nov-29 22:56N 40°40' W 074°09'0 0.0
2017-Nov-29 22:29N 40°40' W 074°09'0 0.0
2017-Nov-29 21:59N 40°40' W 074°09'0 0.0
2017-Nov-29 21:29N 40°40' W 074°09'0 0.0
2017-Nov-29 20:53N 40°40' W 074°09'0 0.0
2017-Nov-29 20:29N 40°40' W 074°09'0 0.0
2017-Nov-29 19:53N 40°40' W 074°09'0 0.0
2017-Nov-29 19:29N 40°40' W 074°09'0 0.0
2017-Nov-29 18:59N 40°40' W 074°09'0 0.0
2017-Nov-29 18:29N 40°40' W 074°09'0 0.0
2017-Nov-29 17:59N 40°40' W 074°09'0 0.0
2017-Nov-29 17:29N 40°40' W 074°09'0 0.1
2017-Nov-29 17:00N 40°40' W 074°09'1 2.8
2017-Nov-29 16:30N 40°39' W 074°08'3 6.1
2017-Nov-29 16:00N 40°39' W 074°05'4 7.4
2017-Nov-29 15:30N 40°36' W 074°02'612.2
2017-Nov-29 15:00N 40°31' W 073°58'510.3
2017-Nov-29 14:30N 40°28' W 073°52'4 8.3
2017-Nov-29 14:00N 40°27' W 073°47'4 8.6
2017-Nov-29 13:30N 40°27' W 073°41'5 9.5
2017-Nov-29 13:00N 40°28' W 073°35'5 9.3
2017-Nov-29 12:30N 40°28' W 073°29'612.9
2017-Nov-29 12:00N 40°29' W 073°20'613.0
2017-Nov-29 11:30N 40°29' W 073°12'712.9
2017-Nov-29 11:00N 40°30' W 073°03'712.8
2017-Nov-29 10:29N 40°30' W 072°55'612.8
2017-Nov-29 09:59N 40°31' W 072°46'610.2
2017-Nov-29 09:26N 40°33' W 072°39'  
Track history (hours):
 
Tides and Currents Weather Stations Pressure Air Temp Water Temp Dewpoint Dewpoint Depression Visibility Wind Speed Wind Dir Waves Ship Positions

Sealand Illinois

Last reported at 2017-Dec-07 15:13 UTC. Time now 2017-Dec-13 11:20 UTC.
Position N 36°49' W 075°47'.

Length 304 m; draft 11.1 m.

Type: Ship (hazmat cat A). MMSI: 229487000.

Date/timePositionNaut miles runAvg speedWind from/ knotsBaromVisibWave heightAir tempDewpointWater temp
2017-Dec-07 15:13N 36°49' W 075°47'2 9.8
2017-Dec-07 15:00N 36°50' W 075°49'5 9.5
2017-Dec-07 14:30N 36°53' W 075°54'5 9.5
2017-Dec-07 14:00N 36°56' W 075°58'510.4
2017-Dec-07 13:30N 36°58' W 076°04'612.9
2017-Dec-07 13:00N 36°60' W 076°12'611.9
2017-Dec-07 12:30N 36°59' W 076°19'5 9.6
2017-Dec-07 12:01N 36°54' W 076°20'3 5.4
2017-Dec-07 11:29N 36°51' W 076°19'0 0.0
2017-Dec-07 10:59N 36°51' W 076°19'0 0.0
2017-Dec-07 10:23N 36°51' W 076°19'0 0.0
2017-Dec-07 09:59N 36°51' W 076°19'0 0.0
2017-Dec-07 09:26N 36°51' W 076°19'0 0.0
2017-Dec-07 08:59N 36°51' W 076°19'0 0.0
2017-Dec-07 08:26N 36°51' W 076°19'0 0.0
2017-Dec-07 07:59N 36°51' W 076°19'0 0.0
2017-Dec-07 07:29N 36°51' W 076°19'0 0.0
2017-Dec-07 06:59N 36°51' W 076°19'0 0.0
2017-Dec-07 06:29N 36°51' W 076°19'0 0.0
2017-Dec-07 05:59N 36°51' W 076°19'0 0.0
2017-Dec-07 05:29N 36°51' W 076°19'0 0.0
2017-Dec-07 04:59N 36°51' W 076°19'0 0.0
2017-Dec-07 04:29N 36°51' W 076°19'0 0.0
2017-Dec-07 03:59N 36°51' W 076°19'0 0.0
2017-Dec-07 03:29N 36°51' W 076°19'0 0.0
2017-Dec-07 02:59N 36°51' W 076°19'0 0.0
2017-Dec-07 02:29N 36°51' W 076°19'0 0.0
2017-Dec-07 01:59N 36°51' W 076°19'0 0.0
2017-Dec-07 01:26N 36°51' W 076°19'0 0.0
2017-Dec-07 00:59N 36°51' W 076°19'0 0.0
2017-Dec-07 00:29N 36°51' W 076°19'0 0.0
2017-Dec-06 23:59N 36°51' W 076°19'0 0.0
2017-Dec-06 23:29N 36°51' W 076°19'0 0.0
2017-Dec-06 22:59N 36°51' W 076°19'0 0.1
2017-Dec-06 22:31N 36°52' W 076°19'2 3.1
2017-Dec-06 22:01N 36°53' W 076°20'5 9.1
2017-Dec-06 21:31N 36°58' W 076°20'711.4
2017-Dec-06 20:54N 36°60' W 076°12'  
2017-Dec-03 05:09N 42°17' W 070°02'613.1
2017-Dec-03 04:43N 42°18' W 070°10'313.2
2017-Dec-03 04:30N 42°18' W 070°14'713.1
2017-Dec-03 04:00N 42°18' W 070°22'612.7
2017-Dec-03 03:30N 42°19' W 070°31'611.8
2017-Dec-03 03:00N 42°20' W 070°39'612.2
2017-Dec-03 02:30N 42°22' W 070°46'510.8
2017-Dec-03 02:00N 42°23' W 070°54'510.6
2017-Dec-03 01:30N 42°20' W 071°00'1 1.6
2017-Dec-03 01:00N 42°21' W 071°01'0 0.0
2017-Dec-03 00:30N 42°21' W 071°01'0 0.0
2017-Dec-03 00:00N 42°21' W 071°01'0 0.0
2017-Dec-02 23:30N 42°21' W 071°01'0 0.0
2017-Dec-02 23:00N 42°21' W 071°01'0 0.0
2017-Dec-02 22:30N 42°21' W 071°01'0 0.0
2017-Dec-02 22:00N 42°21' W 071°01'0 0.0
2017-Dec-02 21:30N 42°21' W 071°01'0 0.0
2017-Dec-02 21:00N 42°21' W 071°01'0 0.0
2017-Dec-02 20:30N 42°21' W 071°01'0 0.0
2017-Dec-02 20:00N 42°21' W 071°01'0 0.0
2017-Dec-02 19:30N 42°21' W 071°01'0 0.0
2017-Dec-02 19:00N 42°21' W 071°01'0 0.0
2017-Dec-02 18:30N 42°21' W 071°01'0 0.0
2017-Dec-02 18:00N 42°21' W 071°01'0 0.0
2017-Dec-02 17:30N 42°21' W 071°01'0 0.0
2017-Dec-02 17:00N 42°21' W 071°01'0 0.0
2017-Dec-02 16:30N 42°21' W 071°01'0 0.0
2017-Dec-02 16:00N 42°21' W 071°01'0 0.0
2017-Dec-02 15:30N 42°21' W 071°01'0 0.0
2017-Dec-02 15:00N 42°21' W 071°01'0 0.0
2017-Dec-02 14:30N 42°21' W 071°01'0 0.0
2017-Dec-02 14:00N 42°21' W 071°01'0 0.0
2017-Dec-02 13:30N 42°21' W 071°01'0 0.0
2017-Dec-02 13:00N 42°21' W 071°01'0 0.0
2017-Dec-02 12:30N 42°21' W 071°01'0 0.0
2017-Dec-02 12:00N 42°21' W 071°01'0 0.0
2017-Dec-02 11:30N 42°21' W 071°01'0 0.0
2017-Dec-02 11:00N 42°21' W 071°01'0 0.0
2017-Dec-02 10:30N 42°21' W 071°01'0 0.0
2017-Dec-02 10:00N 42°21' W 071°01'0 0.0
2017-Dec-02 09:30N 42°21' W 071°01'0 0.0
2017-Dec-02 09:00N 42°21' W 071°01'0 0.0
2017-Dec-02 08:30N 42°21' W 071°01'0 0.0
2017-Dec-02 08:00N 42°21' W 071°01'0 0.0
2017-Dec-02 07:30N 42°21' W 071°01'0 0.0
2017-Dec-02 07:00N 42°21' W 071°01'0 0.0
2017-Dec-02 06:30N 42°21' W 071°01'0 0.0
2017-Dec-02 06:00N 42°21' W 071°01'0 0.0
2017-Dec-02 05:30N 42°21' W 071°01'0 0.0
2017-Dec-02 05:00N 42°21' W 071°01'0 0.0
2017-Dec-02 04:24N 42°21' W 071°01'1 1.7
2017-Dec-02 04:00N 42°20' W 071°00'4 7.9
2017-Dec-02 03:31N 42°22' W 070°55'5 9.3
2017-Dec-02 03:00N 42°24' W 070°50'510.4
2017-Dec-02 02:30N 42°23' W 070°43'611.1
2017-Dec-02 02:00N 42°22' W 070°36'611.5
2017-Dec-02 01:30N 42°21' W 070°28'611.6
2017-Dec-02 01:01N 42°21' W 070°20'5 9.4
2017-Dec-02 00:31N 42°21' W 070°14'0 0.8
2017-Dec-02 00:01N 42°21' W 070°14'713.4
2017-Dec-01 23:31N 42°20' W 070°05'199 9.5
2017-Dec-01 02:28N 40°26' W 073°43'510.4
2017-Dec-01 02:00N 40°27' W 073°49'4 7.7
2017-Dec-01 01:29N 40°29' W 073°54'612.1
2017-Dec-01 01:00N 40°32' W 074°01'715.1
2017-Dec-01 00:30N 40°39' W 074°04'4 7.3
2017-Dec-01 00:00N 40°39' W 074°08'1 2.8
2017-Nov-30 23:30N 40°40' W 074°09'0 0.1
2017-Nov-30 22:59N 40°40' W 074°09'0 0.0
2017-Nov-30 22:29N 40°40' W 074°09'0 0.0
2017-Nov-30 21:59N 40°40' W 074°09'0 0.0
2017-Nov-30 21:29N 40°40' W 074°09'0 0.0
2017-Nov-30 20:59N 40°40' W 074°09'0 0.0
2017-Nov-30 20:29N 40°40' W 074°09'0 0.0
2017-Nov-30 19:59N 40°40' W 074°09'0 0.0
2017-Nov-30 19:29N 40°40' W 074°09'0 0.0
2017-Nov-30 18:59N 40°40' W 074°09'0 0.0
2017-Nov-30 18:29N 40°40' W 074°09'0 0.0
2017-Nov-30 17:59N 40°40' W 074°09'0 0.0
2017-Nov-30 17:29N 40°40' W 074°09'0 0.0
2017-Nov-30 16:59N 40°40' W 074°09'0 0.0
2017-Nov-30 16:29N 40°40' W 074°09'0 0.0
2017-Nov-30 15:59N 40°40' W 074°09'0 0.0
2017-Nov-30 15:29N 40°40' W 074°09'0 0.0
2017-Nov-30 14:59N 40°40' W 074°09'0 0.0
2017-Nov-30 14:29N 40°40' W 074°09'0 0.0
2017-Nov-30 13:56N 40°40' W 074°09'0 0.0
2017-Nov-30 13:29N 40°40' W 074°09'0 0.0
2017-Nov-30 12:56N 40°40' W 074°09'0 0.0
2017-Nov-30 12:29N 40°40' W 074°09'0 0.0
2017-Nov-30 11:59N 40°40' W 074°09'0 0.0
2017-Nov-30 11:29N 40°40' W 074°09'0 0.0
2017-Nov-30 10:59N 40°40' W 074°09'0 0.0
2017-Nov-30 10:29N 40°40' W 074°09'0 0.0
2017-Nov-30 09:56N 40°40' W 074°09'0 0.0
2017-Nov-30 09:29N 40°40' W 074°09'0 0.0
2017-Nov-30 08:59N 40°40' W 074°09'0 0.0
2017-Nov-30 08:29N 40°40' W 074°09'0 0.0
2017-Nov-30 07:56N 40°40' W 074°09'0 0.0
2017-Nov-30 07:29N 40°40' W 074°09'0 0.0
2017-Nov-30 06:59N 40°40' W 074°09'0 0.0
2017-Nov-30 06:26N 40°40' W 074°09'0 0.0
2017-Nov-30 05:44N 40°40' W 074°09'0 0.0
2017-Nov-30 05:29N 40°40' W 074°09'0 0.0
2017-Nov-30 04:59N 40°40' W 074°09'0 0.0
2017-Nov-30 04:29N 40°40' W 074°09'0 0.0
2017-Nov-30 03:59N 40°40' W 074°09'0 0.0
2017-Nov-30 03:26N 40°40' W 074°09'0 0.0
2017-Nov-30 02:59N 40°40' W 074°09'0 0.0
2017-Nov-30 02:29N 40°40' W 074°09'0 0.0
2017-Nov-30 01:53N 40°40' W 074°09'0 0.0
2017-Nov-30 01:29N 40°40' W 074°09'0 0.0
2017-Nov-30 00:59N 40°40' W 074°09'0 0.0
2017-Nov-30 00:29N 40°40' W 074°09'0 0.0
2017-Nov-29 23:59N 40°40' W 074°09'0 0.0
2017-Nov-29 23:29N 40°40' W 074°09'0 0.0
2017-Nov-29 22:56N 40°40' W 074°09'0 0.0
2017-Nov-29 22:29N 40°40' W 074°09'0 0.0
2017-Nov-29 21:59N 40°40' W 074°09'0 0.0
2017-Nov-29 21:29N 40°40' W 074°09'0 0.0
2017-Nov-29 20:53N 40°40' W 074°09'0 0.0
2017-Nov-29 20:29N 40°40' W 074°09'0 0.0
2017-Nov-29 19:53N 40°40' W 074°09'0 0.0
2017-Nov-29 19:29N 40°40' W 074°09'0 0.0
2017-Nov-29 18:59N 40°40' W 074°09'0 0.0
2017-Nov-29 18:29N 40°40' W 074°09'0 0.0
2017-Nov-29 17:59N 40°40' W 074°09'0 0.0
2017-Nov-29 17:29N 40°40' W 074°09'0 0.1
2017-Nov-29 17:00N 40°40' W 074°09'1 2.8
2017-Nov-29 16:30N 40°39' W 074°08'3 6.1
2017-Nov-29 16:00N 40°39' W 074°05'4 7.4
2017-Nov-29 15:30N 40°36' W 074°02'612.2
2017-Nov-29 15:00N 40°31' W 073°58'510.3
2017-Nov-29 14:30N 40°28' W 073°52'4 8.3
2017-Nov-29 14:00N 40°27' W 073°47'4 8.6
2017-Nov-29 13:30N 40°27' W 073°41'5 9.5
2017-Nov-29 13:00N 40°28' W 073°35'5 9.3
2017-Nov-29 12:30N 40°28' W 073°29'612.9
2017-Nov-29 12:00N 40°29' W 073°20'613.0
2017-Nov-29 11:30N 40°29' W 073°12'712.9
2017-Nov-29 11:00N 40°30' W 073°03'712.8
2017-Nov-29 10:29N 40°30' W 072°55'612.8
2017-Nov-29 09:59N 40°31' W 072°46'610.2
2017-Nov-29 09:26N 40°33' W 072°39'  

Dump ship's entire track history